Peck, Idaho
Current Conditions -  °F | °C
As of 1:56 AM on Saturday 25 Oct 2014 (Local Time) from KLWS Reporting Station
Clear Clear  
Wind Chill: 50°   Ceiling: Unl
Heat Index: 50°   Visibility: 10mi
Dew Point: 47°   Wind: 6mph
Humidity: 89%   Direction: 70°ENE
Pressure: 29.84"   Gusts: NA
Location:  46.48°N, 116.42°W
Report Text: KLWS 250856Z AUTO 07005KT 10SM CLR 10/08 A2984 RMK AO2 SLP106 T01000083 58024
Loading
Personal Weather Stations






























Interactive Weather Map
Tropical Storm Tracking
New forecast layout! Learn more

10-Day Weather Forecast

Advertisements
Track Severe Weather on mobile